Abbeville, LA

9:45 AM CST on December 13, 2017 (GMT -0600)
Abbeville

Weather History for KIYA - September, 2012

Change the Weather History Date:

Thursday, September 13, 2012

  Actual Average (KARA) Record (KARA)
Temperature  
Mean Temperature 80 °F -  
Max Temperature 89 °F 86 °F 100 °F (1980)
Min Temperature 70 °F 68 °F 57 °F (1954)
Cooling Degree Days 14    
Growing Degree Days 30 (Base 50)    
Moisture  
Dew Point 74 °F    
Average Humidity 87    
Maximum Humidity 100    
Minimum Humidity 53    
Precipitation  
Precipitation 0.22 in - - ()
Sea Level Pressure  
Sea Level Pressure 30.10 in    
Wind  
Wind Speed 2 mph ()    
Max Wind Speed 16 mph    
Max Gust Speed 25 mph    
Visibility 9.5 miles    
Events Rain , Thunderstorm    
Averages and records for this station are not official NWS values.
T = Trace of Precipitation, MM = Missing Value Source: Averaged Metar Reports

Daily Weather History Graph

Daily Weather History Graph

Search for Another Location

Airport or City:

Trip Planner

Search our weather history database for the weather conditions in past years. The results will help you decide how hot, cold, wet, or windy it might be!

Date:

Astronomy

Sep. 13, 2012 Rise Set
Actual Time 6:52 AM CDT 7:15 PM CDT
Civil Twilight 6:28 AM CDT 7:39 PM CDT
Nautical Twilight 5:59 AM CDT 8:07 PM CDT
Astronomical Twilight 5:31 AM CDT 8:35 PM CDT
Moon 4:20 AM CDT 5:32 PM CDT
Length of Visible Light 13h 11m
Length of Day
12h 23m
Waning Crescent, 7% of the Moon is Illuminated
Sep 13
Waning Crescent
Sep 15
New
Sep 22
First Quarter
Sep 29
Full
Oct 8
Last Quarter

Hourly Weather History & Observations

Time (CDT) Temp. Heat Index Dew Point Humidity Pressure Visibility Wind Dir Wind Speed Gust Speed Precip Events Conditions
12:15 AM 71.1 °F - 71.1 °F 100% 30.11 in 10.0 mi NE 4.6 mph - 0.01 in   Clear
12:35 AM 71.6 °F - 71.6 °F 100% 30.10 in 10.0 mi Calm Calm - 0.02 in   Clear
12:55 AM 71.2 °F - 71.2 °F 100% 30.10 in 10.0 mi Calm Calm - 0.02 in   Clear
1:15 AM 71.1 °F - 71.1 °F 100% 30.09 in 10.0 mi Calm Calm - 0.01 in   Clear
1:35 AM 71.1 °F - 71.1 °F 100% 30.09 in 10.0 mi Calm Calm - 0.01 in   Clear
1:55 AM 70.9 °F - 70.9 °F 100% 30.09 in 10.0 mi Calm Calm - 0.02 in   Clear
2:15 AM 71.2 °F - 71.2 °F 100% 30.08 in 10.0 mi Calm Calm - N/A   Clear
2:35 AM 70.9 °F - 70.9 °F 100% 30.08 in 10.0 mi Calm Calm - N/A   Clear
2:55 AM 71.1 °F - 71.1 °F 100% 30.08 in 10.0 mi Calm Calm - 0.01 in   Clear
3:15 AM 71.2 °F - 71.2 °F 100% 30.08 in 10.0 mi Calm Calm - N/A   Clear
3:35 AM 72.0 °F - 72.0 °F 100% 30.08 in 10.0 mi Calm Calm - N/A   Clear
3:55 AM 72.5 °F - 72.5 °F 100% 30.07 in 10.0 mi East 3.5 mph - N/A   Clear
4:15 AM 73.6 °F - 73.6 °F 100% 30.08 in 10.0 mi East 3.5 mph - N/A   Clear
4:35 AM 73.4 °F - 73.4 °F 100% 30.08 in 10.0 mi Calm Calm - 0.01 in   Clear
4:55 AM 73.0 °F - 73.0 °F 100% 30.08 in 10.0 mi Calm Calm - 0.02 in   Clear
5:15 AM 72.7 °F - 72.7 °F 100% 30.08 in 10.0 mi Calm Calm - N/A   Clear
5:35 AM 72.5 °F - 72.5 °F 100% 30.09 in 7.0 mi Calm Calm - 0.01 in   Clear
5:55 AM 72.5 °F - 72.5 °F 100% 30.09 in 5.0 mi Calm Calm - 0.01 in   Clear
6:15 AM 71.8 °F - 71.8 °F 100% 30.10 in 4.0 mi Calm Calm - 0.01 in   Clear
6:35 AM 72.1 °F - 72.1 °F 100% 30.11 in 3.0 mi Calm Calm - 0.01 in   Clear
6:55 AM 71.6 °F - 71.6 °F 100% 30.10 in 2.0 mi Calm Calm - 0.01 in   Clear
7:15 AM 72.1 °F - 72.1 °F 100% 30.11 in 5.0 mi Calm Calm - N/A   Clear
7:35 AM 72.9 °F - 72.9 °F 100% 30.11 in 7.0 mi Calm Calm - 0.01 in   Clear
7:55 AM 73.9 °F - 73.9 °F 100% 30.11 in 10.0 mi Calm Calm - 0.01 in   Clear
8:15 AM 75.9 °F - 75.9 °F 100% 30.11 in 10.0 mi East 3.5 mph - N/A   Clear
8:35 AM 77.2 °F - 77.2 °F 100% 30.11 in 10.0 mi East 4.6 mph - N/A   Clear
8:55 AM 78.8 °F - 77.9 °F 97% 30.11 in 10.0 mi East 4.6 mph - N/A   Clear
9:15 AM 80.4 °F 87.4 °F 78.1 °F 93% 30.12 in 10.0 mi Calm Calm - N/A   Clear
9:35 AM 81.7 °F 90.2 °F 78.1 °F 89% 30.12 in 10.0 mi East 6.9 mph - 0.01 in   Clear
9:55 AM 82.2 °F 91.3 °F 77.9 °F 87% 30.12 in 10.0 mi East 4.6 mph - 0.01 in   Mostly Cloudy
10:15 AM 83.7 °F 93.4 °F 77.4 °F 81% 30.13 in 10.0 mi East 4.6 mph - N/A   Mostly Cloudy
10:35 AM 84.2 °F 93.8 °F 76.8 °F 78% 30.13 in 10.0 mi ESE 4.6 mph - N/A   Mostly Cloudy
10:55 AM 85.5 °F 95.4 °F 76.5 °F 74% 30.13 in 10.0 mi SSE 5.8 mph - 0.01 in   Scattered Clouds
11:15 AM 85.3 °F 94.6 °F 75.7 °F 73% 30.13 in 10.0 mi ESE 4.6 mph - N/A   Mostly Cloudy
11:35 AM 86.2 °F 95.5 °F 75.6 °F 70% 30.13 in 10.0 mi ESE 4.6 mph - 0.01 in   Mostly Cloudy
11:55 AM 86.2 °F 96.0 °F 75.7 °F 71% 30.13 in 10.0 mi SE 5.8 mph - 0.01 in   Mostly Cloudy
12:15 PM 86.7 °F 95.5 °F 74.7 °F 67% 30.13 in 10.0 mi SE 3.5 mph - N/A   Mostly Cloudy
12:35 PM 86.4 °F 95.5 °F 75.0 °F 69% 30.13 in 10.0 mi ESE 3.5 mph - 0.01 in   Overcast
12:55 PM 86.0 °F 93.8 °F 73.8 °F 67% 30.12 in 10.0 mi ESE 4.6 mph - 0.01 in   Overcast
1:15 PM 86.7 °F 93.3 °F 72.5 °F 62% 30.12 in 10.0 mi SSE 6.9 mph - N/A   Overcast
1:35 PM 86.4 °F 94.2 °F 73.9 °F 66% 30.11 in 10.0 mi East 3.5 mph - 0.01 in Rain Light Rain
1:55 PM 87.6 °F 96.2 °F 73.9 °F 64% 30.10 in 10.0 mi East 4.6 mph - 0.01 in   Mostly Cloudy
2:15 PM 88.0 °F 96.5 °F 74.1 °F 63% 30.09 in 10.0 mi ESE 9.2 mph - N/A   Scattered Clouds
2:35 PM 88.0 °F 96.0 °F 73.4 °F 62% 30.08 in 10.0 mi ESE 8.1 mph - N/A   Clear
2:55 PM 89.6 °F 95.2 °F 70.2 °F 53% 30.07 in 10.0 mi SSE 4.6 mph - 0.01 in   Clear
3:15 PM 89.1 °F 97.5 °F 73.8 °F 60% 30.06 in 10.0 mi SE 4.6 mph - N/A   Clear
3:35 PM 89.2 °F 97.4 °F 73.0 °F 59% 30.05 in 10.0 mi SSE 6.9 mph - N/A   Clear
3:55 PM 88.9 °F 97.6 °F 73.9 °F 61% 30.05 in 10.0 mi SSE 6.9 mph - 0.01 in   Clear
4:15 PM 87.4 °F 95.3 °F 73.4 °F 63% 30.04 in 10.0 mi SE 5.8 mph - N/A   Clear
4:35 PM 89.2 °F 96.9 °F 72.5 °F 58% 30.06 in 10.0 mi ESE 10.4 mph - N/A Thunderstorm Scattered Clouds
4:55 PM 79.0 °F - 71.8 °F 78% 30.09 in 10.0 mi East 16.1 mph 25.3 mph N/A Thunderstorm Thunderstorm
5:15 PM 78.6 °F - 73.2 °F 83% 30.07 in 10.0 mi East 8.1 mph 17.3 mph 0.01 in Thunderstorm Scattered Clouds
5:35 PM 80.1 °F 84.1 °F 72.7 °F 78% 30.06 in 10.0 mi ENE 5.8 mph - 0.01 in   Scattered Clouds
5:55 PM 82.0 °F 87.0 °F 72.1 °F 72% 30.06 in 10.0 mi East 5.8 mph - 0.01 in   Mostly Cloudy
6:15 PM 80.1 °F 84.1 °F 72.5 °F 78% 30.07 in 10.0 mi East 4.6 mph - N/A   Scattered Clouds
6:35 PM 79.0 °F - 72.5 °F 80% 30.07 in 10.0 mi ESE 3.5 mph - 0.01 in   Scattered Clouds
6:55 PM 78.1 °F - 73.0 °F 84% 30.08 in 10.0 mi East 3.5 mph - 0.01 in   Scattered Clouds
7:15 PM 77.9 °F - 73.4 °F 86% 30.08 in 10.0 mi Calm Calm - N/A   Mostly Cloudy
7:35 PM 77.5 °F - 73.9 °F 89% 30.09 in 10.0 mi Calm Calm - N/A   Scattered Clouds
7:55 PM 77.0 °F - 74.5 °F 92% 30.09 in 10.0 mi Calm Calm - 0.01 in   Clear
8:15 PM 77.0 °F - 74.3 °F 91% 30.10 in 10.0 mi Calm Calm - N/A   Clear
8:35 PM 76.1 °F - 74.8 °F 96% 30.10 in 10.0 mi ENE 3.5 mph - N/A   Clear
8:55 PM 75.7 °F - 74.8 °F 97% 30.11 in 10.0 mi Calm Calm - N/A   Clear
9:15 PM 75.2 °F - 74.7 °F 98% 30.11 in 10.0 mi Calm Calm - 0.01 in   Clear
9:35 PM 75.2 °F - 74.8 °F 99% 30.12 in 10.0 mi Calm Calm - 0.01 in   Clear
9:55 PM 75.2 °F - 75.2 °F 100% 30.13 in 10.0 mi Calm Calm - 0.01 in   Clear
10:15 PM 74.5 °F - 74.5 °F 100% 30.13 in 10.0 mi Calm Calm - N/A   Clear
10:35 PM 74.3 °F - 74.3 °F 100% 30.13 in 10.0 mi Calm Calm - 0.01 in   Clear
10:55 PM 73.8 °F - 73.8 °F 100% 30.13 in 10.0 mi Calm Calm - 0.01 in   Clear
11:15 PM 73.4 °F - 73.4 °F 100% 30.13 in 10.0 mi Calm Calm - N/A   Clear
11:35 PM 73.6 °F - 73.6 °F 100% 30.13 in 10.0 mi Calm Calm - N/A   Clear
11:55 PM 73.4 °F - 73.4 °F 100% 30.13 in 10.0 mi Calm Calm - N/A   Clear